sensor_id;sensor_type;location;lat;lon;timestamp;P1;durP1;ratioP1;P2;durP2;ratioP2
19776;SDS011;10047;42.490;26.012;2022-10-28T00:01:07;22.45;;;17.77;;
19776;SDS011;10047;42.490;26.012;2022-10-28T00:03:38;24.15;;;19.02;;
19776;SDS011;10047;42.490;26.012;2022-10-28T00:06:06;24.77;;;19.20;;
19776;SDS011;10047;42.490;26.012;2022-10-28T00:08:34;25.98;;;19.50;;
19776;SDS011;10047;42.490;26.012;2022-10-28T00:11:07;24.27;;;18.60;;
19776;SDS011;10047;42.490;26.012;2022-10-28T00:13:43;24.55;;;19.08;;
19776;SDS011;10047;42.490;26.012;2022-10-28T00:16:19;26.38;;;18.80;;
19776;SDS011;10047;42.490;26.012;2022-10-28T00:18:46;27.80;;;19.83;;
19776;SDS011;10047;42.490;26.012;2022-10-28T00:21:14;26.25;;;19.33;;
19776;SDS011;10047;42.490;26.012;2022-10-28T00:23:41;25.08;;;19.70;;
19776;SDS011;10047;42.490;26.012;2022-10-28T00:26:11;26.30;;;20.15;;
19776;SDS011;10047;42.490;26.012;2022-10-28T00:28:46;22.20;;;18.88;;
19776;SDS011;10047;42.490;26.012;2022-10-28T00:31:14;22.73;;;18.83;;
19776;SDS011;10047;42.490;26.012;2022-10-28T00:33:41;23.98;;;20.50;;
19776;SDS011;10047;42.490;26.012;2022-10-28T00:36:11;25.38;;;20.88;;
19776;SDS011;10047;42.490;26.012;2022-10-28T00:38:42;22.70;;;18.92;;
19776;SDS011;10047;42.490;26.012;2022-10-28T00:41:09;22.33;;;18.70;;
19776;SDS011;10047;42.490;26.012;2022-10-28T00:43:43;24.35;;;19.45;;
19776;SDS011;10047;42.490;26.012;2022-10-28T00:46:12;23.48;;;18.73;;
19776;SDS011;10047;42.490;26.012;2022-10-28T00:48:42;26.70;;;19.90;;
19776;SDS011;10047;42.490;26.012;2022-10-28T00:51:11;23.52;;;19.38;;
19776;SDS011;10047;42.490;26.012;2022-10-28T00:53:39;27.40;;;20.05;;
19776;SDS011;10047;42.490;26.012;2022-10-28T00:56:08;28.70;;;21.35;;
19776;SDS011;10047;42.490;26.012;2022-10-28T00:58:35;24.73;;;20.20;;
19776;SDS011;10047;42.490;26.012;2022-10-28T01:01:01;26.15;;;19.45;;
19776;SDS011;10047;42.490;26.012;2022-10-28T01:03:26;25.30;;;20.30;;
19776;SDS011;10047;42.490;26.012;2022-10-28T01:05:52;27.55;;;19.95;;
19776;SDS011;10047;42.490;26.012;2022-10-28T01:08:18;28.50;;;21.15;;
19776;SDS011;10047;42.490;26.012;2022-10-28T01:13:53;25.38;;;19.85;;
19776;SDS011;10047;42.490;26.012;2022-10-28T01:35:42;22.05;;;17.77;;
19776;SDS011;10047;42.490;26.012;2022-10-28T01:43:40;24.20;;;18.38;;
19776;SDS011;10047;42.490;26.012;2022-10-28T01:46:24;24.17;;;17.75;;
19776;SDS011;10047;42.490;26.012;2022-10-28T01:48:58;22.77;;;17.42;;
19776;SDS011;10047;42.490;26.012;2022-10-28T01:52:10;18.67;;;15.25;;
19776;SDS011;10047;42.490;26.012;2022-10-28T01:54:18;17.77;;;14.55;;
19776;SDS011;10047;42.490;26.012;2022-10-28T01:56:47;17.85;;;14.30;;
19776;SDS011;10047;42.490;26.012;2022-10-28T01:59:16;17.73;;;13.50;;
19776;SDS011;10047;42.490;26.012;2022-10-28T02:01:44;19.48;;;15.07;;
19776;SDS011;10047;42.490;26.012;2022-10-28T02:04:10;21.70;;;14.73;;
19776;SDS011;10047;42.490;26.012;2022-10-28T02:06:35;19.92;;;13.30;;
19776;SDS011;10047;42.490;26.012;2022-10-28T02:09:08;19.60;;;13.35;;
19776;SDS011;10047;42.490;26.012;2022-10-28T02:16:57;19.13;;;13.77;;
19776;SDS011;10047;42.490;26.012;2022-10-28T02:19:32;17.35;;;13.40;;
19776;SDS011;10047;42.490;26.012;2022-10-28T02:25:06;15.90;;;12.75;;
19776;SDS011;10047;42.490;26.012;2022-10-28T02:27:35;15.93;;;12.52;;
19776;SDS011;10047;42.490;26.012;2022-10-28T02:30:12;15.93;;;13.10;;
19776;SDS011;10047;42.490;26.012;2022-10-28T02:32:45;20.40;;;14.57;;
19776;SDS011;10047;42.490;26.012;2022-10-28T02:35:19;18.55;;;13.88;;
19776;SDS011;10047;42.490;26.012;2022-10-28T02:37:51;17.15;;;13.80;;
19776;SDS011;10047;42.490;26.012;2022-10-28T02:40:20;18.13;;;14.63;;
19776;SDS011;10047;42.490;26.012;2022-10-28T02:42:54;20.63;;;14.45;;
19776;SDS011;10047;42.490;26.012;2022-10-28T02:45:48;19.60;;;13.95;;
19776;SDS011;10047;42.490;26.012;2022-10-28T02:48:21;19.27;;;13.48;;
19776;SDS011;10047;42.490;26.012;2022-10-28T02:50:53;18.35;;;14.30;;
19776;SDS011;10047;42.490;26.012;2022-10-28T02:53:32;18.45;;;13.60;;
19776;SDS011;10047;42.490;26.012;2022-10-28T02:56:05;23.50;;;16.17;;
19776;SDS011;10047;42.490;26.012;2022-10-28T02:58:37;23.75;;;15.60;;
19776;SDS011;10047;42.490;26.012;2022-10-28T03:01:04;27.80;;;17.92;;
19776;SDS011;10047;42.490;26.012;2022-10-28T03:03:30;27.95;;;18.63;;
19776;SDS011;10047;42.490;26.012;2022-10-28T03:05:55;19.75;;;15.23;;
19776;SDS011;10047;42.490;26.012;2022-10-28T03:08:21;18.83;;;14.45;;
19776;SDS011;10047;42.490;26.012;2022-10-28T03:10:48;19.25;;;14.35;;
19776;SDS011;10047;42.490;26.012;2022-10-28T03:13:14;20.92;;;15.70;;
19776;SDS011;10047;42.490;26.012;2022-10-28T03:15:39;29.77;;;17.55;;
19776;SDS011;10047;42.490;26.012;2022-10-28T03:18:04;30.80;;;18.25;;
19776;SDS011;10047;42.490;26.012;2022-10-28T03:20:30;27.20;;;17.67;;
19776;SDS011;10047;42.490;26.012;2022-10-28T03:22:55;25.20;;;17.23;;
19776;SDS011;10047;42.490;26.012;2022-10-28T03:25:21;27.90;;;19.50;;
19776;SDS011;10047;42.490;26.012;2022-10-28T03:27:46;28.40;;;18.27;;
19776;SDS011;10047;42.490;26.012;2022-10-28T03:30:12;32.75;;;18.33;;
19776;SDS011;10047;42.490;26.012;2022-10-28T03:32:40;25.90;;;15.95;;
19776;SDS011;10047;42.490;26.012;2022-10-28T03:35:06;23.80;;;15.73;;
19776;SDS011;10047;42.490;26.012;2022-10-28T03:37:32;23.25;;;17.30;;
19776;SDS011;10047;42.490;26.012;2022-10-28T03:39:58;22.80;;;17.15;;
19776;SDS011;10047;42.490;26.012;2022-10-28T03:42:26;25.35;;;17.63;;
19776;SDS011;10047;42.490;26.012;2022-10-28T03:44:52;30.33;;;18.23;;
19776;SDS011;10047;42.490;26.012;2022-10-28T03:47:17;29.85;;;18.63;;
19776;SDS011;10047;42.490;26.012;2022-10-28T03:49:42;26.45;;;18.40;;
19776;SDS011;10047;42.490;26.012;2022-10-28T03:52:08;28.67;;;19.80;;
19776;SDS011;10047;42.490;26.012;2022-10-28T03:54:33;28.85;;;19.75;;
19776;SDS011;10047;42.490;26.012;2022-10-28T03:56:58;28.70;;;20.40;;
19776;SDS011;10047;42.490;26.012;2022-10-28T03:59:24;27.73;;;19.88;;
19776;SDS011;10047;42.490;26.012;2022-10-28T04:01:49;29.80;;;22.05;;
19776;SDS011;10047;42.490;26.012;2022-10-28T04:04:15;32.17;;;23.63;;
19776;SDS011;10047;42.490;26.012;2022-10-28T04:06:40;23.48;;;19.00;;
19776;SDS011;10047;42.490;26.012;2022-10-28T04:09:05;24.15;;;17.63;;
19776;SDS011;10047;42.490;26.012;2022-10-28T04:11:31;26.83;;;17.67;;
19776;SDS011;10047;42.490;26.012;2022-10-28T04:13:56;22.17;;;17.00;;
19776;SDS011;10047;42.490;26.012;2022-10-28T04:16:22;24.38;;;16.02;;
19776;SDS011;10047;42.490;26.012;2022-10-28T04:18:47;21.48;;;15.63;;
19776;SDS011;10047;42.490;26.012;2022-10-28T04:21:12;22.73;;;15.63;;
19776;SDS011;10047;42.490;26.012;2022-10-28T04:23:38;21.92;;;15.63;;
19776;SDS011;10047;42.490;26.012;2022-10-28T04:26:03;25.90;;;17.02;;
19776;SDS011;10047;42.490;26.012;2022-10-28T04:28:29;25.65;;;17.15;;
19776;SDS011;10047;42.490;26.012;2022-10-28T04:30:54;27.88;;;17.52;;
19776;SDS011;10047;42.490;26.012;2022-10-28T04:33:20;29.42;;;19.25;;
19776;SDS011;10047;42.490;26.012;2022-10-28T04:35:45;27.58;;;19.35;;
19776;SDS011;10047;42.490;26.012;2022-10-28T04:38:13;30.00;;;19.65;;
19776;SDS011;10047;42.490;26.012;2022-10-28T04:40:39;32.78;;;23.00;;
19776;SDS011;10047;42.490;26.012;2022-10-28T04:43:04;33.70;;;21.35;;
19776;SDS011;10047;42.490;26.012;2022-10-28T04:45:30;79.00;;;21.23;;
19776;SDS011;10047;42.490;26.012;2022-10-28T04:47:56;29.70;;;20.67;;
19776;SDS011;10047;42.490;26.012;2022-10-28T04:50:23;32.38;;;19.75;;
19776;SDS011;10047;42.490;26.012;2022-10-28T04:52:48;30.98;;;20.13;;
19776;SDS011;10047;42.490;26.012;2022-10-28T04:55:13;30.55;;;19.95;;
19776;SDS011;10047;42.490;26.012;2022-10-28T04:57:39;32.58;;;19.88;;
19776;SDS011;10047;42.490;26.012;2022-10-28T05:00:04;33.10;;;20.33;;
19776;SDS011;10047;42.490;26.012;2022-10-28T05:02:30;42.42;;;20.60;;
19776;SDS011;10047;42.490;26.012;2022-10-28T05:04:56;36.13;;;21.70;;
19776;SDS011;10047;42.490;26.012;2022-10-28T05:07:24;30.65;;;19.77;;
19776;SDS011;10047;42.490;26.012;2022-10-28T05:09:49;29.15;;;20.05;;
19776;SDS011;10047;42.490;26.012;2022-10-28T05:12:15;32.10;;;19.05;;
19776;SDS011;10047;42.490;26.012;2022-10-28T05:14:40;30.50;;;19.42;;
19776;SDS011;10047;42.490;26.012;2022-10-28T05:17:07;32.50;;;20.80;;
19776;SDS011;10047;42.490;26.012;2022-10-28T05:19:32;29.17;;;20.33;;
19776;SDS011;10047;42.490;26.012;2022-10-28T05:21:58;33.47;;;20.48;;
19776;SDS011;10047;42.490;26.012;2022-10-28T05:24:23;57.88;;;21.90;;
19776;SDS011;10047;42.490;26.012;2022-10-28T05:26:48;43.10;;;23.08;;
19776;SDS011;10047;42.490;26.012;2022-10-28T05:29:14;40.35;;;24.15;;
19776;SDS011;10047;42.490;26.012;2022-10-28T05:31:39;44.75;;;27.20;;
19776;SDS011;10047;42.490;26.012;2022-10-28T05:34:05;40.05;;;25.27;;
19776;SDS011;10047;42.490;26.012;2022-10-28T05:36:30;49.15;;;28.88;;
19776;SDS011;10047;42.490;26.012;2022-10-28T05:38:56;51.88;;;29.35;;
19776;SDS011;10047;42.490;26.012;2022-10-28T05:41:21;47.60;;;26.85;;
19776;SDS011;10047;42.490;26.012;2022-10-28T05:43:46;47.70;;;28.10;;
19776;SDS011;10047;42.490;26.012;2022-10-28T05:46:12;68.53;;;34.03;;
19776;SDS011;10047;42.490;26.012;2022-10-28T05:48:37;70.20;;;36.80;;
19776;SDS011;10047;42.490;26.012;2022-10-28T05:51:03;56.15;;;30.67;;
19776;SDS011;10047;42.490;26.012;2022-10-28T05:53:28;50.60;;;28.73;;
19776;SDS011;10047;42.490;26.012;2022-10-28T05:55:54;55.45;;;27.67;;
19776;SDS011;10047;42.490;26.012;2022-10-28T05:58:19;49.25;;;26.38;;
19776;SDS011;10047;42.490;26.012;2022-10-28T06:00:44;51.70;;;26.88;;
19776;SDS011;10047;42.490;26.012;2022-10-28T06:03:10;52.80;;;26.17;;
19776;SDS011;10047;42.490;26.012;2022-10-28T06:05:40;43.65;;;23.55;;
19776;SDS011;10047;42.490;26.012;2022-10-28T06:08:09;46.75;;;23.67;;
19776;SDS011;10047;42.490;26.012;2022-10-28T06:10:36;38.20;;;23.55;;
19776;SDS011;10047;42.490;26.012;2022-10-28T06:13:02;37.72;;;21.88;;
19776;SDS011;10047;42.490;26.012;2022-10-28T06:15:27;36.00;;;19.98;;
19776;SDS011;10047;42.490;26.012;2022-10-28T06:17:53;31.88;;;19.25;;
19776;SDS011;10047;42.490;26.012;2022-10-28T06:20:18;29.45;;;18.02;;
19776;SDS011;10047;42.490;26.012;2022-10-28T06:22:48;26.70;;;15.70;;
19776;SDS011;10047;42.490;26.012;2022-10-28T06:25:14;24.77;;;15.55;;
19776;SDS011;10047;42.490;26.012;2022-10-28T06:27:40;22.10;;;15.65;;
19776;SDS011;10047;42.490;26.012;2022-10-28T06:30:06;32.35;;;18.88;;
19776;SDS011;10047;42.490;26.012;2022-10-28T06:32:31;31.25;;;20.10;;
19776;SDS011;10047;42.490;26.012;2022-10-28T06:34:57;40.30;;;21.92;;
19776;SDS011;10047;42.490;26.012;2022-10-28T06:37:23;57.17;;;26.65;;
19776;SDS011;10047;42.490;26.012;2022-10-28T06:39:48;50.78;;;28.40;;
19776;SDS011;10047;42.490;26.012;2022-10-28T06:42:17;66.78;;;29.88;;
19776;SDS011;10047;42.490;26.012;2022-10-28T06:44:43;45.30;;;27.70;;
19776;SDS011;10047;42.490;26.012;2022-10-28T06:47:09;65.25;;;34.58;;
19776;SDS011;10047;42.490;26.012;2022-10-28T06:49:34;58.53;;;34.40;;
19776;SDS011;10047;42.490;26.012;2022-10-28T06:52:00;51.40;;;27.90;;
19776;SDS011;10047;42.490;26.012;2022-10-28T06:54:25;22.75;;;15.65;;
19776;SDS011;10047;42.490;26.012;2022-10-28T06:56:50;29.60;;;12.20;;
19776;SDS011;10047;42.490;26.012;2022-10-28T06:59:16;17.00;;;12.20;;
19776;SDS011;10047;42.490;26.012;2022-10-28T07:01:41;20.23;;;12.73;;
19776;SDS011;10047;42.490;26.012;2022-10-28T07:04:09;27.40;;;13.20;;
19776;SDS011;10047;42.490;26.012;2022-10-28T07:06:36;17.25;;;12.18;;
19776;SDS011;10047;42.490;26.012;2022-10-28T07:09:01;18.58;;;11.98;;
19776;SDS011;10047;42.490;26.012;2022-10-28T07:11:27;20.10;;;12.90;;
19776;SDS011;10047;42.490;26.012;2022-10-28T07:13:52;22.15;;;12.65;;
19776;SDS011;10047;42.490;26.012;2022-10-28T07:16:18;21.63;;;14.30;;
19776;SDS011;10047;42.490;26.012;2022-10-28T07:18:43;21.85;;;15.38;;
19776;SDS011;10047;42.490;26.012;2022-10-28T07:21:08;25.55;;;16.55;;
19776;SDS011;10047;42.490;26.012;2022-10-28T07:23:34;30.25;;;20.15;;
19776;SDS011;10047;42.490;26.012;2022-10-28T07:25:59;33.90;;;22.38;;
19776;SDS011;10047;42.490;26.012;2022-10-28T07:28:25;34.42;;;22.45;;
19776;SDS011;10047;42.490;26.012;2022-10-28T07:30:51;28.52;;;19.40;;
19776;SDS011;10047;42.490;26.012;2022-10-28T07:33:17;25.48;;;14.80;;
19776;SDS011;10047;42.490;26.012;2022-10-28T07:35:42;23.42;;;14.10;;
19776;SDS011;10047;42.490;26.012;2022-10-28T07:38:08;18.05;;;12.40;;
19776;SDS011;10047;42.490;26.012;2022-10-28T07:40:34;18.00;;;13.25;;
19776;SDS011;10047;42.490;26.012;2022-10-28T07:43:00;19.50;;;14.98;;
19776;SDS011;10047;42.490;26.012;2022-10-28T07:45:26;24.48;;;15.98;;
19776;SDS011;10047;42.490;26.012;2022-10-28T07:47:51;23.98;;;16.90;;
19776;SDS011;10047;42.490;26.012;2022-10-28T07:50:16;21.08;;;15.48;;
19776;SDS011;10047;42.490;26.012;2022-10-28T07:52:42;18.85;;;13.95;;
19776;SDS011;10047;42.490;26.012;2022-10-28T07:55:08;20.73;;;15.00;;
19776;SDS011;10047;42.490;26.012;2022-10-28T07:57:34;21.27;;;15.35;;
19776;SDS011;10047;42.490;26.012;2022-10-28T08:00:00;21.63;;;15.27;;
19776;SDS011;10047;42.490;26.012;2022-10-28T08:02:26;24.35;;;17.08;;
19776;SDS011;10047;42.490;26.012;2022-10-28T08:04:51;27.60;;;17.58;;
19776;SDS011;10047;42.490;26.012;2022-10-28T08:07:17;19.67;;;14.95;;
19776;SDS011;10047;42.490;26.012;2022-10-28T08:09:44;17.35;;;13.80;;
19776;SDS011;10047;42.490;26.012;2022-10-28T08:12:11;26.13;;;17.50;;
19776;SDS011;10047;42.490;26.012;2022-10-28T08:14:38;25.98;;;19.50;;
19776;SDS011;10047;42.490;26.012;2022-10-28T08:17:03;24.02;;;17.67;;
19776;SDS011;10047;42.490;26.012;2022-10-28T08:19:29;20.85;;;15.75;;
19776;SDS011;10047;42.490;26.012;2022-10-28T08:21:55;21.27;;;15.45;;
19776;SDS011;10047;42.490;26.012;2022-10-28T08:24:20;17.05;;;13.95;;
19776;SDS011;10047;42.490;26.012;2022-10-28T08:26:46;18.65;;;15.05;;
19776;SDS011;10047;42.490;26.012;2022-10-28T08:29:11;20.10;;;15.68;;
19776;SDS011;10047;42.490;26.012;2022-10-28T08:31:37;20.75;;;14.82;;
19776;SDS011;10047;42.490;26.012;2022-10-28T08:34:04;19.45;;;15.60;;
19776;SDS011;10047;42.490;26.012;2022-10-28T08:36:30;16.38;;;12.88;;
19776;SDS011;10047;42.490;26.012;2022-10-28T08:38:56;15.48;;;11.23;;
19776;SDS011;10047;42.490;26.012;2022-10-28T08:47:18;14.27;;;10.70;;
19776;SDS011;10047;42.490;26.012;2022-10-28T08:49:47;11.57;;;10.25;;
19776;SDS011;10047;42.490;26.012;2022-10-28T08:52:30;12.75;;;10.45;;
19776;SDS011;10047;42.490;26.012;2022-10-28T08:55:20;13.88;;;9.93;;
19776;SDS011;10047;42.490;26.012;2022-10-28T09:00:30;15.13;;;10.00;;
19776;SDS011;10047;42.490;26.012;2022-10-28T09:05:35;14.65;;;9.98;;
19776;SDS011;10047;42.490;26.012;2022-10-28T09:08:02;13.95;;;8.50;;
19776;SDS011;10047;42.490;26.012;2022-10-28T09:16:07;14.05;;;9.00;;
19776;SDS011;10047;42.490;26.012;2022-10-28T09:24:03;12.73;;;9.73;;
19776;SDS011;10047;42.490;26.012;2022-10-28T09:34:43;14.07;;;9.82;;
19776;SDS011;10047;42.490;26.012;2022-10-28T09:37:14;13.45;;;9.23;;
19776;SDS011;10047;42.490;26.012;2022-10-28T09:39:48;14.85;;;9.55;;
19776;SDS011;10047;42.490;26.012;2022-10-28T09:42:22;12.68;;;9.80;;
19776;SDS011;10047;42.490;26.012;2022-10-28T09:44:55;13.25;;;9.45;;
19776;SDS011;10047;42.490;26.012;2022-10-28T09:47:26;13.07;;;9.90;;
19776;SDS011;10047;42.490;26.012;2022-10-28T09:49:59;13.38;;;8.85;;
19776;SDS011;10047;42.490;26.012;2022-10-28T09:52:32;15.50;;;8.80;;
19776;SDS011;10047;42.490;26.012;2022-10-28T09:55:05;15.68;;;9.43;;
19776;SDS011;10047;42.490;26.012;2022-10-28T09:57:39;14.93;;;8.95;;
19776;SDS011;10047;42.490;26.012;2022-10-28T10:00:05;17.95;;;9.15;;
19776;SDS011;10047;42.490;26.012;2022-10-28T10:02:32;18.63;;;9.93;;
19776;SDS011;10047;42.490;26.012;2022-10-28T10:05:00;11.25;;;8.05;;
19776;SDS011;10047;42.490;26.012;2022-10-28T10:09:58;8.18;;;5.65;;
19776;SDS011;10047;42.490;26.012;2022-10-28T10:12:28;9.13;;;5.78;;
19776;SDS011;10047;42.490;26.012;2022-10-28T10:14:57;11.27;;;6.97;;
19776;SDS011;10047;42.490;26.012;2022-10-28T10:17:24;9.68;;;7.10;;
19776;SDS011;10047;42.490;26.012;2022-10-28T10:22:30;8.93;;;6.32;;
19776;SDS011;10047;42.490;26.012;2022-10-28T10:25:00;10.52;;;6.55;;
19776;SDS011;10047;42.490;26.012;2022-10-28T10:27:26;10.73;;;7.68;;
19776;SDS011;10047;42.490;26.012;2022-10-28T10:29:54;9.00;;;6.85;;
19776;SDS011;10047;42.490;26.012;2022-10-28T10:32:24;11.82;;;6.47;;
19776;SDS011;10047;42.490;26.012;2022-10-28T10:34:58;10.07;;;4.90;;
19776;SDS011;10047;42.490;26.012;2022-10-28T10:37:25;7.78;;;5.03;;
19776;SDS011;10047;42.490;26.012;2022-10-28T10:40:06;8.55;;;5.03;;
19776;SDS011;10047;42.490;26.012;2022-10-28T10:42:32;6.00;;;4.32;;
19776;SDS011;10047;42.490;26.012;2022-10-28T10:47:39;9.63;;;4.20;;
19776;SDS011;10047;42.490;26.012;2022-10-28T10:52:54;7.22;;;4.32;;
19776;SDS011;10047;42.490;26.012;2022-10-28T10:55:30;9.77;;;4.18;;
19776;SDS011;10047;42.490;26.012;2022-10-28T10:57:56;8.23;;;5.03;;
19776;SDS011;10047;42.490;26.012;2022-10-28T11:00:22;5.78;;;4.05;;
19776;SDS011;10047;42.490;26.012;2022-10-28T11:02:54;8.40;;;4.10;;
19776;SDS011;10047;42.490;26.012;2022-10-28T11:05:21;5.47;;;3.63;;
19776;SDS011;10047;42.490;26.012;2022-10-28T11:07:48;5.60;;;3.60;;
19776;SDS011;10047;42.490;26.012;2022-10-28T11:10:23;4.28;;;2.95;;
19776;SDS011;10047;42.490;26.012;2022-10-28T11:12:54;6.97;;;3.50;;
19776;SDS011;10047;42.490;26.012;2022-10-28T11:17:53;4.32;;;3.22;;
19776;SDS011;10047;42.490;26.012;2022-10-28T11:20:29;5.05;;;3.20;;
19776;SDS011;10047;42.490;26.012;2022-10-28T11:23:14;4.35;;;3.20;;
19776;SDS011;10047;42.490;26.012;2022-10-28T11:25:43;5.85;;;4.43;;
19776;SDS011;10047;42.490;26.012;2022-10-28T11:30:48;9.93;;;3.88;;
19776;SDS011;10047;42.490;26.012;2022-10-28T11:33:42;4.20;;;3.60;;
19776;SDS011;10047;42.490;26.012;2022-10-28T11:47:13;6.88;;;4.35;;
19776;SDS011;10047;42.490;26.012;2022-10-28T11:55:40;9.05;;;4.32;;
19776;SDS011;10047;42.490;26.012;2022-10-28T12:00:55;5.55;;;3.80;;
19776;SDS011;10047;42.490;26.012;2022-10-28T12:09:06;8.63;;;5.40;;
19776;SDS011;10047;42.490;26.012;2022-10-28T12:20:06;8.68;;;5.18;;
19776;SDS011;10047;42.490;26.012;2022-10-28T12:22:48;9.45;;;5.25;;
19776;SDS011;10047;42.490;26.012;2022-10-28T12:25:23;8.95;;;5.45;;
19776;SDS011;10047;42.490;26.012;2022-10-28T12:28:36;9.57;;;4.82;;
19776;SDS011;10047;42.490;26.012;2022-10-28T12:30:46;9.90;;;4.75;;
19776;SDS011;10047;42.490;26.012;2022-10-28T12:33:19;8.20;;;5.80;;
19776;SDS011;10047;42.490;26.012;2022-10-28T12:35:49;6.15;;;5.50;;
19776;SDS011;10047;42.490;26.012;2022-10-28T12:38:25;9.20;;;5.77;;
19776;SDS011;10047;42.490;26.012;2022-10-28T12:41:03;10.27;;;6.03;;
19776;SDS011;10047;42.490;26.012;2022-10-28T12:43:41;14.82;;;9.27;;
19776;SDS011;10047;42.490;26.012;2022-10-28T12:46:15;8.77;;;6.90;;
19776;SDS011;10047;42.490;26.012;2022-10-28T12:49:04;10.57;;;5.18;;
19776;SDS011;10047;42.490;26.012;2022-10-28T12:51:40;6.85;;;5.68;;
19776;SDS011;10047;42.490;26.012;2022-10-28T12:57:11;6.22;;;4.55;;
19776;SDS011;10047;42.490;26.012;2022-10-28T12:59:41;11.10;;;6.38;;
19776;SDS011;10047;42.490;26.012;2022-10-28T13:02:19;7.80;;;4.68;;
19776;SDS011;10047;42.490;26.012;2022-10-28T13:04:50;5.72;;;3.90;;
19776;SDS011;10047;42.490;26.012;2022-10-28T13:26:44;8.57;;;3.33;;
19776;SDS011;10047;42.490;26.012;2022-10-28T13:29:19;5.30;;;3.20;;
19776;SDS011;10047;42.490;26.012;2022-10-28T13:31:47;5.72;;;3.20;;
19776;SDS011;10047;42.490;26.012;2022-10-28T13:34:15;6.68;;;2.67;;
19776;SDS011;10047;42.490;26.012;2022-10-28T13:37:02;6.18;;;3.15;;
19776;SDS011;10047;42.490;26.012;2022-10-28T13:44:49;5.50;;;3.53;;
19776;SDS011;10047;42.490;26.012;2022-10-28T13:52:32;5.55;;;2.90;;
19776;SDS011;10047;42.490;26.012;2022-10-28T13:58:04;6.00;;;3.33;;
19776;SDS011;10047;42.490;26.012;2022-10-28T14:00:42;4.68;;;2.80;;
19776;SDS011;10047;42.490;26.012;2022-10-28T14:03:21;7.93;;;3.33;;
19776;SDS011;10047;42.490;26.012;2022-10-28T14:05:53;5.05;;;2.60;;
19776;SDS011;10047;42.490;26.012;2022-10-28T14:08:29;4.57;;;2.53;;
19776;SDS011;10047;42.490;26.012;2022-10-28T14:11:00;3.42;;;2.67;;
19776;SDS011;10047;42.490;26.012;2022-10-28T14:13:35;6.05;;;2.83;;
19776;SDS011;10047;42.490;26.012;2022-10-28T14:16:13;8.48;;;3.28;;
19776;SDS011;10047;42.490;26.012;2022-10-28T14:18:57;9.45;;;3.13;;
19776;SDS011;10047;42.490;26.012;2022-10-28T14:21:24;7.47;;;3.00;;
19776;SDS011;10047;42.490;26.012;2022-10-28T14:26:49;7.93;;;2.92;;
19776;SDS011;10047;42.490;26.012;2022-10-28T14:48:42;7.43;;;3.25;;
19776;SDS011;10047;42.490;26.012;2022-10-28T14:51:15;10.02;;;3.10;;
19776;SDS011;10047;42.490;26.012;2022-10-28T14:53:44;6.45;;;3.40;;
19776;SDS011;10047;42.490;26.012;2022-10-28T14:56:26;8.55;;;3.10;;
19776;SDS011;10047;42.490;26.012;2022-10-28T14:58:54;7.35;;;3.20;;
19776;SDS011;10047;42.490;26.012;2022-10-28T15:01:24;9.90;;;3.28;;
19776;SDS011;10047;42.490;26.012;2022-10-28T15:04:01;6.93;;;3.83;;
19776;SDS011;10047;42.490;26.012;2022-10-28T15:06:36;14.35;;;4.05;;
19776;SDS011;10047;42.490;26.012;2022-10-28T15:12:07;17.85;;;4.93;;
19776;SDS011;10047;42.490;26.012;2022-10-28T15:14:39;19.17;;;6.13;;
19776;SDS011;10047;42.490;26.012;2022-10-28T15:17:13;20.02;;;6.80;;
19776;SDS011;10047;42.490;26.012;2022-10-28T15:19:44;17.98;;;10.27;;
19776;SDS011;10047;42.490;26.012;2022-10-28T15:22:16;18.77;;;10.52;;
19776;SDS011;10047;42.490;26.012;2022-10-28T15:27:36;16.23;;;9.40;;
19776;SDS011;10047;42.490;26.012;2022-10-28T15:30:04;18.67;;;8.20;;
19776;SDS011;10047;42.490;26.012;2022-10-28T15:32:43;13.55;;;8.18;;
19776;SDS011;10047;42.490;26.012;2022-10-28T15:37:54;19.70;;;11.07;;
19776;SDS011;10047;42.490;26.012;2022-10-28T15:40:21;21.30;;;10.27;;
19776;SDS011;10047;42.490;26.012;2022-10-28T15:45:25;15.02;;;8.93;;
19776;SDS011;10047;42.490;26.012;2022-10-28T15:50:20;15.02;;;7.82;;
19776;SDS011;10047;42.490;26.012;2022-10-28T15:52:50;15.27;;;7.87;;
19776;SDS011;10047;42.490;26.012;2022-10-28T15:57:56;14.48;;;8.32;;
19776;SDS011;10047;42.490;26.012;2022-10-28T16:02:55;32.42;;;17.00;;
19776;SDS011;10047;42.490;26.012;2022-10-28T16:10:35;29.92;;;16.73;;
19776;SDS011;10047;42.490;26.012;2022-10-28T16:13:12;24.27;;;12.95;;
19776;SDS011;10047;42.490;26.012;2022-10-28T16:15:45;18.13;;;11.50;;
19776;SDS011;10047;42.490;26.012;2022-10-28T16:18:15;18.58;;;11.05;;
19776;SDS011;10047;42.490;26.012;2022-10-28T16:20:42;19.02;;;9.90;;
19776;SDS011;10047;42.490;26.012;2022-10-28T16:23:17;26.77;;;10.73;;
19776;SDS011;10047;42.490;26.012;2022-10-28T16:25:45;21.17;;;9.65;;
19776;SDS011;10047;42.490;26.012;2022-10-28T16:28:16;18.77;;;9.38;;
19776;SDS011;10047;42.490;26.012;2022-10-28T16:30:44;20.80;;;9.88;;
19776;SDS011;10047;42.490;26.012;2022-10-28T16:33:10;19.35;;;8.32;;
19776;SDS011;10047;42.490;26.012;2022-10-28T16:35:35;18.52;;;10.73;;
19776;SDS011;10047;42.490;26.012;2022-10-28T16:38:01;17.15;;;9.20;;
19776;SDS011;10047;42.490;26.012;2022-10-28T16:40:26;15.60;;;7.80;;
19776;SDS011;10047;42.490;26.012;2022-10-28T16:42:52;15.77;;;6.80;;
19776;SDS011;10047;42.490;26.012;2022-10-28T16:45:19;10.07;;;5.75;;
19776;SDS011;10047;42.490;26.012;2022-10-28T16:47:44;12.75;;;6.60;;
19776;SDS011;10047;42.490;26.012;2022-10-28T16:50:10;13.63;;;5.57;;
19776;SDS011;10047;42.490;26.012;2022-10-28T16:52:36;8.32;;;5.65;;
19776;SDS011;10047;42.490;26.012;2022-10-28T16:55:01;11.00;;;5.25;;
19776;SDS011;10047;42.490;26.012;2022-10-28T16:57:26;9.45;;;4.97;;
19776;SDS011;10047;42.490;26.012;2022-10-28T16:59:52;8.80;;;5.25;;
19776;SDS011;10047;42.490;26.012;2022-10-28T17:04:52;12.43;;;6.03;;
19776;SDS011;10047;42.490;26.012;2022-10-28T17:07:18;10.70;;;6.10;;
19776;SDS011;10047;42.490;26.012;2022-10-28T17:09:43;11.05;;;6.18;;
19776;SDS011;10047;42.490;26.012;2022-10-28T17:12:12;12.45;;;6.95;;
19776;SDS011;10047;42.490;26.012;2022-10-28T17:14:42;14.02;;;7.05;;
19776;SDS011;10047;42.490;26.012;2022-10-28T17:17:08;10.88;;;6.55;;
19776;SDS011;10047;42.490;26.012;2022-10-28T17:19:35;13.90;;;6.53;;
19776;SDS011;10047;42.490;26.012;2022-10-28T17:22:01;12.48;;;6.30;;
19776;SDS011;10047;42.490;26.012;2022-10-28T17:24:26;11.55;;;6.28;;
19776;SDS011;10047;42.490;26.012;2022-10-28T17:26:52;11.40;;;6.18;;
19776;SDS011;10047;42.490;26.012;2022-10-28T17:29:17;10.45;;;5.82;;
19776;SDS011;10047;42.490;26.012;2022-10-28T17:31:42;7.90;;;5.50;;
19776;SDS011;10047;42.490;26.012;2022-10-28T17:34:08;12.25;;;5.90;;
19776;SDS011;10047;42.490;26.012;2022-10-28T17:36:34;10.52;;;5.60;;
19776;SDS011;10047;42.490;26.012;2022-10-28T17:38:59;8.35;;;5.60;;
19776;SDS011;10047;42.490;26.012;2022-10-28T17:41:25;11.52;;;6.38;;
19776;SDS011;10047;42.490;26.012;2022-10-28T17:43:51;8.13;;;5.57;;
19776;SDS011;10047;42.490;26.012;2022-10-28T17:46:17;8.23;;;6.05;;